Time;durP1;ratioP1;P1;durP2;ratioP2;P2;SDS_P1;SDS_P2;PMS_P1;PMS_P2;Temp;Humidity;BMP_temperature;BMP_pressure;BME280_temperature;BME280_humidity;BME280_pressure;Samples;Min_cycle;Max_cycle;Signal;HPM_P1;HPM_P2
2022/11/09 00:00:30;;;;;;;4.72;2.63;;;;;;;5.76;60.50;92789.09;2054799;69;20237;-74
2022/11/09 00:02:55;;;;;;;4.88;2.40;;;;;;;5.76;59.60;92779.97;2051279;70;20565;-75
2022/11/09 00:05:21;;;;;;;5.78;2.45;;;;;;;5.68;60.16;92788.47;2054577;70;20148;-76
2022/11/09 00:07:46;;;;;;;3.85;2.20;;;;;;;5.78;60.79;92785.75;2054399;70;20225;-73
2022/11/09 00:10:15;;;;;;;3.25;2.10;;;;;;;5.74;60.01;92780.56;2051373;70;20177;-73
2022/11/09 00:12:41;;;;;;;3.83;2.20;;;;;;;5.70;60.35;92780.25;2054323;70;20254;-76
2022/11/09 00:15:07;;;;;;;4.45;2.15;;;;;;;5.77;60.13;92781.44;2054414;69;20575;-74
2022/11/09 00:17:37;;;;;;;4.63;2.25;;;;;;;5.82;59.91;92784.00;2054477;70;20176;-74
2022/11/09 00:20:03;;;;;;;3.40;2.17;;;;;;;5.82;60.49;92770.03;2054733;70;20174;-73
2022/11/09 00:22:32;;;;;;;3.28;2.00;;;;;;;5.71;61.97;92775.38;2054596;70;20644;-75
2022/11/09 00:24:58;;;;;;;4.55;2.03;;;;;;;5.80;59.82;92772.66;2051281;70;20166;-73
2022/11/09 00:27:25;;;;;;;3.08;2.17;;;;;;;5.92;59.45;92755.41;2054653;70;20158;-76
2022/11/09 00:29:53;;;;;;;4.82;1.98;;;;;;;5.98;59.17;92767.06;2054676;69;20192;-74
2022/11/09 00:32:19;;;;;;;3.15;2.00;;;;;;;5.80;60.25;92772.66;2054779;70;20186;-74
2022/11/09 00:34:46;;;;;;;2.75;1.80;;;;;;;5.91;60.04;92770.66;2051218;70;20709;-74
2022/11/09 00:37:12;;;;;;;3.92;1.98;;;;;;;5.91;59.70;92776.25;2051242;70;20234;-74
2022/11/09 00:39:37;;;;;;;4.00;1.80;;;;;;;6.02;59.12;92792.53;2054819;70;20146;-74
2022/11/09 00:42:06;;;;;;;4.72;1.70;;;;;;;5.94;60.59;92801.00;2051203;70;20177;-75
2022/11/09 00:44:32;;;;;;;4.68;2.47;;;;;;;5.62;61.33;92813.09;2054416;70;20148;-73
2022/11/09 00:46:58;;;;;;;5.10;2.45;;;;;;;5.46;60.87;92809.75;2054641;70;20134;-74
2022/11/09 00:49:23;;;;;;;4.45;2.50;;;;;;;5.49;60.67;92824.59;2050910;70;20511;-75
2022/11/09 00:51:49;;;;;;;3.75;2.17;;;;;;;5.60;61.07;92815.75;2054502;70;20184;-74
2022/11/09 00:54:16;;;;;;;4.32;2.22;;;;;;;5.53;61.44;92786.56;2050873;70;20146;-74
2022/11/09 00:56:42;;;;;;;4.45;2.33;;;;;;;5.49;61.35;92772.28;2054223;70;20174;-74
2022/11/09 00:59:10;;;;;;;3.67;2.28;;;;;;;5.35;61.96;92752.34;2048113;70;20220;-72
2022/11/09 01:01:37;;;;;;;2.28;1.42;;;;;;;5.45;62.16;92755.22;2051055;70;20216;-73
2022/11/09 01:04:03;;;;;;;2.60;1.60;;;;;;;5.53;61.25;92758.66;2054329;70;20653;-73
2022/11/09 01:06:31;;;;;;;1.83;1.10;;;;;;;5.48;62.78;92775.66;2050953;70;20603;-73
2022/11/09 01:08:57;;;;;;;3.63;2.20;;;;;;;5.43;62.25;92787.81;2054178;70;20165;-74
2022/11/09 01:11:23;;;;;;;3.38;2.10;;;;;;;5.15;62.69;92787.00;2054194;70;20693;-72
2022/11/09 01:13:52;;;;;;;5.90;2.17;;;;;;;4.81;64.11;92791.25;2047787;70;20580;-72
2022/11/09 01:16:20;;;;;;;3.42;2.00;;;;;;;4.90;63.91;92789.84;2054172;70;20568;-72
2022/11/09 01:18:46;;;;;;;2.97;1.92;;;;;;;5.08;62.99;92793.38;2050698;70;20196;-72
2022/11/09 01:21:14;;;;;;;2.15;1.70;;;;;;;5.12;63.23;92790.94;2054250;70;20142;-72
2022/11/09 01:23:41;;;;;;;2.40;1.58;;;;;;;5.03;64.29;92789.53;2054345;70;20158;-73
2022/11/09 01:26:11;;;;;;;3.67;2.08;;;;;;;4.75;63.49;92792.75;2054276;70;20158;-73
2022/11/09 01:28:38;;;;;;;2.90;1.95;;;;;;;4.79;64.18;92777.09;2054202;70;20393;-73
2022/11/09 01:31:16;;;;;;;5.03;1.90;;;;;;;5.08;63.11;92780.16;2050949;70;20231;-72
2022/11/09 01:33:43;;;;;;;4.32;2.22;;;;;;;5.10;63.19;92791.50;2054447;70;20601;-73
2022/11/09 01:36:29;;;;;;;3.85;1.88;;;;;;;5.21;62.11;92787.47;2050960;70;20150;-73
2022/11/09 01:38:59;;;;;;;4.65;1.95;;;;;;;5.24;62.36;92783.56;2054180;70;20166;-73
2022/11/09 01:41:27;;;;;;;3.85;1.73;;;;;;;5.30;61.35;92784.03;2054294;70;20241;-73
2022/11/09 01:44:06;;;;;;;2.75;1.58;;;;;;;5.41;60.48;92782.09;2054032;70;20607;-73
2022/11/09 01:46:39;;;;;;;2.47;1.30;;;;;;;5.42;61.11;92770.34;2050774;70;20220;-73
2022/11/09 01:49:30;;;;;;;2.15;1.30;;;;;;;5.40;61.71;92764.56;2050881;70;20142;-73
2022/11/09 01:52:03;;;;;;;2.45;1.35;;;;;;;5.33;62.81;92760.56;2051467;70;20161;-73
2022/11/09 01:54:36;;;;;;;2.85;1.40;;;;;;;5.22;62.61;92738.75;2054304;70;20263;-73
2022/11/09 01:57:09;;;;;;;2.33;1.40;;;;;;;5.39;61.10;92757.53;2054054;70;20204;-73
2022/11/09 01:59:40;;;;;;;2.08;1.40;;;;;;;5.44;61.10;92764.91;2050835;70;20662;-72
2022/11/09 02:02:06;;;;;;;2.35;1.50;;;;;;;5.52;61.45;92773.94;2050800;70;20134;-73
2022/11/09 02:04:57;;;;;;;2.17;1.60;;;;;;;5.50;58.89;92768.19;2050833;70;20150;-72
2022/11/09 02:07:24;;;;;;;4.05;1.77;;;;;;;5.58;57.97;92756.91;2050784;70;20170;-72
2022/11/09 02:09:55;;;;;;;2.47;1.67;;;;;;;5.59;58.13;92758.41;2050723;70;20712;-73
2022/11/09 02:12:24;;;;;;;4.25;2.17;;;;;;;5.73;57.57;92756.00;2050676;70;20627;-73
2022/11/09 02:14:53;;;;;;;2.83;1.70;;;;;;;5.77;58.50;92753.50;2053997;70;20530;-74
2022/11/09 02:17:20;;;;;;;2.63;1.52;;;;;;;5.71;59.16;92748.19;2050809;70;20569;-74
2022/11/09 02:19:46;;;;;;;1.85;1.40;;;;;;;5.60;60.30;92755.03;2054123;70;20630;-74
2022/11/09 02:22:11;;;;;;;2.58;1.42;;;;;;;5.60;59.99;92754.31;2054052;70;20283;-74
2022/11/09 02:24:37;;;;;;;3.28;1.52;;;;;;;5.59;59.98;92750.03;2053959;70;20491;-75
2022/11/09 02:27:07;;;;;;;3.22;1.40;;;;;;;5.69;59.51;92745.25;2053910;70;20558;-73
2022/11/09 02:29:38;;;;;;;2.03;1.35;;;;;;;5.66;59.51;92743.59;2050623;70;20235;-73
2022/11/09 02:32:12;;;;;;;2.33;1.40;;;;;;;5.77;59.64;92748.69;2050727;70;20213;-74
2022/11/09 02:34:38;;;;;;;2.88;1.70;;;;;;;5.42;60.81;92756.38;2053979;70;20530;-75
2022/11/09 02:37:03;;;;;;;3.15;1.70;;;;;;;5.41;60.20;92757.69;2050608;70;20552;-74
2022/11/09 02:39:30;;;;;;;3.28;1.70;;;;;;;5.32;61.46;92753.50;2047906;70;20275;-74
2022/11/09 02:42:02;;;;;;;2.75;1.70;;;;;;;5.26;61.29;92764.16;2050635;70;20606;-73
2022/11/09 02:44:35;;;;;;;2.72;1.73;;;;;;;5.08;62.20;92754.31;2050624;70;20166;-73
2022/11/09 02:47:02;;;;;;;3.80;1.65;;;;;;;5.19;60.98;92764.28;2054088;70;20190;-73
2022/11/09 02:49:28;;;;;;;2.85;1.45;;;;;;;5.22;61.33;92768.69;2050503;70;20145;-73
2022/11/09 02:51:54;;;;;;;2.70;1.70;;;;;;;4.99;62.62;92760.56;2050621;70;20138;-73
2022/11/09 02:54:20;;;;;;;2.10;1.45;;;;;;;5.20;60.19;92760.16;2050848;70;20176;-74
2022/11/09 02:56:47;;;;;;;2.38;1.70;;;;;;;5.07;61.26;92755.63;2050767;70;20173;-73
2022/11/09 02:59:13;;;;;;;3.20;1.73;;;;;;;5.15;60.51;92741.63;2054515;69;20526;-74
2022/11/09 03:01:42;;;;;;;3.55;1.95;;;;;;;5.25;59.71;92759.16;2048709;70;20490;-74
2022/11/09 03:04:09;;;;;;;2.40;1.70;;;;;;;5.17;60.70;92767.63;2051249;70;20217;-75
2022/11/09 03:06:35;;;;;;;3.35;1.73;;;;;;;5.14;61.38;92766.00;2051158;70;20546;-74
2022/11/09 03:09:10;;;;;;;4.43;1.52;;;;;;;5.27;59.61;92776.84;2048735;70;20542;-74
2022/11/09 03:11:40;;;;;;;4.15;1.65;;;;;;;5.36;59.58;92783.81;2054502;70;20268;-73
2022/11/09 03:14:06;;;;;;;3.63;1.30;;;;;;;5.42;59.13;92775.19;2051176;70;20184;-74
2022/11/09 03:16:33;;;;;;;2.63;1.40;;;;;;;5.37;59.74;92776.91;2051216;70;20217;-74
2022/11/09 03:18:58;;;;;;;3.45;1.80;;;;;;;5.42;58.93;92787.09;2054643;70;20213;-73
2022/11/09 03:21:28;;;;;;;2.35;1.50;;;;;;;5.34;59.46;92784.38;2048304;70;20606;-72
2022/11/09 03:23:54;;;;;;;2.47;1.73;;;;;;;5.47;58.70;92779.78;2051281;70;20196;-74
2022/11/09 03:26:21;;;;;;;2.30;1.50;;;;;;;5.41;58.35;92780.03;2051220;70;20518;-72
2022/11/09 03:28:47;;;;;;;2.38;1.63;;;;;;;5.41;59.05;92782.09;2051279;70;20579;-72
2022/11/09 03:31:13;;;;;;;3.38;1.70;;;;;;;5.40;59.74;92777.78;2051329;70;20581;-72
2022/11/09 03:33:42;;;;;;;2.38;1.27;;;;;;;5.18;61.46;92769.13;2051197;70;20142;-74
2022/11/09 03:36:08;;;;;;;2.08;1.33;;;;;;;5.26;60.11;92766.22;2048552;70;20162;-74
2022/11/09 03:38:34;;;;;;;2.15;1.42;;;;;;;5.46;59.55;92761.56;2051127;70;20574;-74
2022/11/09 03:41:02;;;;;;;2.60;1.27;;;;;;;5.56;59.56;92756.78;2051314;70;20313;-75
2022/11/09 03:43:31;;;;;;;3.22;1.48;;;;;;;5.52;59.17;92765.56;2054556;70;20815;-73
2022/11/09 03:45:59;;;;;;;2.97;1.48;;;;;;;5.60;59.17;92768.25;2054621;70;20153;-74
2022/11/09 03:48:26;;;;;;;1.65;1.23;;;;;;;5.48;60.41;92764.50;2054587;70;20499;-76
2022/11/09 03:50:51;;;;;;;2.33;1.48;;;;;;;5.45;60.03;92772.00;2054542;69;20234;-76
2022/11/09 03:53:17;;;;;;;3.53;1.60;;;;;;;5.39;60.45;92770.75;2054459;69;20166;-75
2022/11/09 03:55:42;;;;;;;2.15;1.27;;;;;;;5.33;59.80;92774.53;2054566;70;20637;-76
2022/11/09 03:58:10;;;;;;;1.80;1.40;;;;;;;5.42;59.31;92770.34;2054410;70;20559;-75
2022/11/09 04:00:35;;;;;;;1.60;1.15;;;;;;;5.57;58.46;92775.72;2051317;70;20134;-76
2022/11/09 04:03:01;;;;;;;2.95;1.60;;;;;;;5.40;58.90;92766.63;2054542;70;20486;-73
2022/11/09 04:05:27;;;;;;;1.63;1.38;;;;;;;5.48;58.78;92767.28;2054547;70;20228;-73
2022/11/09 04:07:55;;;;;;;2.70;1.33;;;;;;;5.42;58.91;92775.19;2054623;70;20507;-73
2022/11/09 04:10:22;;;;;;;2.45;1.52;;;;;;;5.47;58.95;92768.59;2054663;69;20489;-73
2022/11/09 04:12:48;;;;;;;2.55;1.40;;;;;;;5.51;59.53;92777.31;2054498;70;20586;-76
2022/11/09 04:15:14;;;;;;;2.83;1.20;;;;;;;5.54;59.30;92774.13;2051508;70;20174;-76
2022/11/09 04:17:39;;;;;;;2.60;1.30;;;;;;;5.50;59.88;92789.81;2055388;70;20285;-76
2022/11/09 04:20:07;;;;;;;5.28;3.13;;;;;;;5.49;58.67;92782.72;2053332;70;20172;-74
2022/11/09 04:22:33;;;;;;;2.67;1.77;;;;;;;5.41;60.00;92791.19;2053697;70;20684;-74
2022/11/09 04:24:58;;;;;;;5.38;2.85;;;;;;;5.49;58.22;92789.03;2055056;70;20142;-75
2022/11/09 04:27:25;;;;;;;4.00;2.78;;;;;;;5.50;59.50;92784.94;2054542;70;20514;-75
2022/11/09 04:29:50;;;;;;;2.00;1.60;;;;;;;5.65;59.33;92784.03;2051317;70;20138;-75
2022/11/09 04:32:16;;;;;;;2.65;1.67;;;;;;;5.55;57.99;92769.25;2051119;70;20537;-74
2022/11/09 04:34:42;;;;;;;2.20;1.50;;;;;;;5.45;58.77;92777.56;2051017;70;20153;-75
2022/11/09 04:37:09;;;;;;;6.35;1.90;;;;;;;5.53;58.28;92769.81;2054447;70;20142;-75
2022/11/09 04:39:35;;;;;;;1.83;1.25;;;;;;;5.39;59.24;92781.91;2054390;70;20145;-73
2022/11/09 04:42:00;;;;;;;4.28;1.80;;;;;;;5.43;57.63;92782.25;2054442;70;20164;-73
2022/11/09 04:44:28;;;;;;;3.88;2.50;;;;;;;5.49;57.64;92777.88;2054205;70;20225;-75
2022/11/09 04:46:54;;;;;;;2.95;2.00;;;;;;;5.60;57.22;92769.00;2051266;70;20253;-74
2022/11/09 04:49:20;;;;;;;2.33;1.58;;;;;;;5.72;56.91;92757.31;2054340;70;20515;-75
2022/11/09 04:51:46;;;;;;;2.03;1.45;;;;;;;5.67;57.77;92763.88;2054398;70;20158;-76
2022/11/09 04:54:13;;;;;;;2.78;1.40;;;;;;;5.56;58.71;92759.56;2054441;70;20161;-76
2022/11/09 04:56:38;;;;;;;2.60;1.30;;;;;;;5.60;58.48;92765.47;2054444;70;20154;-76
2022/11/09 04:59:04;;;;;;;2.08;1.30;;;;;;;5.69;58.26;92762.00;2054480;70;20141;-75
2022/11/09 05:01:30;;;;;;;1.98;1.30;;;;;;;5.64;59.20;92757.41;2054474;70;20153;-76
2022/11/09 05:03:56;;;;;;;4.40;1.60;;;;;;;5.33;59.13;92765.41;2054613;70;20164;-74
2022/11/09 05:06:30;;;;;;;2.72;1.80;;;;;;;5.17;61.28;92758.50;2051076;70;20154;-73
2022/11/09 05:08:56;;;;;;;3.70;1.70;;;;;;;5.22;60.56;92761.06;2054429;70;20170;-74
2022/11/09 05:11:22;;;;;;;5.20;2.00;;;;;;;5.36;59.81;92764.28;2054336;70;20594;-74
2022/11/09 05:13:48;;;;;;;3.70;2.58;;;;;;;5.23;60.88;92762.53;2054120;70;20166;-74
2022/11/09 05:16:16;;;;;;;9.98;8.02;;;;;;;5.03;61.21;92764.41;2048178;70;20162;-74
2022/11/09 05:18:42;;;;;;;6.45;4.68;;;;;;;5.27;60.09;92765.66;2054474;70;20162;-74
2022/11/09 05:21:08;;;;;;;5.72;3.60;;;;;;;5.27;59.79;92773.31;2054404;70;20153;-75
2022/11/09 05:26:19;;;;;;;4.65;2.72;;;;;;;4.84;62.80;92783.75;2054527;69;20315;-73
2022/11/09 05:28:45;;;;;;;4.32;2.33;;;;;;;4.64;63.40;92784.88;2054252;70;20155;-74
2022/11/09 05:31:10;;;;;;;4.03;2.55;;;;;;;4.96;61.55;92772.88;2054383;70;20574;-74
2022/11/09 05:33:36;;;;;;;6.10;3.30;;;;;;;4.71;62.93;92764.53;2054236;70;20146;-74
2022/11/09 05:36:02;;;;;;;5.50;3.25;;;;;;;4.83;61.49;92774.66;2054262;70;20158;-74
2022/11/09 05:38:28;;;;;;;6.32;3.53;;;;;;;4.82;61.98;92778.75;2054353;70;20166;-73
2022/11/09 05:40:54;;;;;;;6.22;3.30;;;;;;;4.64;62.34;92782.81;2050962;70;20185;-74
2022/11/09 05:43:20;;;;;;;6.18;3.38;;;;;;;4.79;62.91;92782.69;2054142;70;20147;-73
2022/11/09 05:45:47;;;;;;;7.30;3.75;;;;;;;4.85;62.51;92790.81;2050947;70;20154;-73
2022/11/09 05:48:14;;;;;;;6.97;3.58;;;;;;;4.90;61.88;92783.53;2054221;70;20594;-73
2022/11/09 05:50:41;;;;;;;7.47;3.70;;;;;;;4.94;62.00;92787.38;2054183;70;20153;-73
2022/11/09 05:53:23;;;;;;;8.10;3.97;;;;;;;5.00;62.11;92784.38;2050892;70;20169;-73
2022/11/09 05:55:49;;;;;;;8.05;3.90;;;;;;;4.85;62.84;92785.22;2054245;70;20230;-74
2022/11/09 05:58:15;;;;;;;7.65;3.90;;;;;;;4.97;63.03;92777.88;2054159;70;20145;-75
2022/11/09 06:00:41;;;;;;;11.38;5.93;;;;;;;4.75;63.91;92781.59;2054410;70;20162;-74
2022/11/09 06:03:08;;;;;;;16.55;7.53;;;;;;;5.01;63.09;92775.41;2054184;69;20153;-74
2022/11/09 06:05:36;;;;;;;18.65;8.68;;;;;;;5.11;62.78;92781.09;2054251;70;20154;-74
2022/11/09 06:08:07;;;;;;;14.85;7.80;;;;;;;5.09;62.90;92775.34;2054191;70;20146;-73
2022/11/09 06:10:35;;;;;;;16.17;8.15;;;;;;;5.05;62.65;92786.91;2054272;70;20145;-74
2022/11/09 06:13:01;;;;;;;13.27;6.20;;;;;;;4.85;63.49;92790.81;2054127;70;20248;-74
2022/11/09 06:15:27;;;;;;;11.35;5.32;;;;;;;5.02;63.40;92804.06;2054296;70;20165;-74
2022/11/09 06:17:53;;;;;;;13.10;5.22;;;;;;;4.73;64.89;92809.34;2054334;70;20157;-74
2022/11/09 06:20:19;;;;;;;10.77;5.30;;;;;;;4.51;65.29;92811.72;2054349;70;20664;-73
2022/11/09 06:22:52;;;;;;;21.05;9.82;;;;;;;4.93;64.27;92819.38;2054186;70;20295;-73
2022/11/09 06:25:18;;;;;;;26.67;13.73;;;;;;;5.02;63.71;92823.59;2054206;70;20157;-73
2022/11/09 06:27:44;;;;;;;14.40;7.63;;;;;;;5.02;63.89;92818.00;2053920;70;20157;-73
2022/11/09 06:30:10;;;;;;;12.65;6.40;;;;;;;5.02;63.76;92823.59;2050995;70;20212;-73
2022/11/09 06:32:35;;;;;;;14.63;5.97;;;;;;;5.20;63.20;92813.94;2054464;70;20138;-74
2022/11/09 06:35:01;;;;;;;16.65;7.60;;;;;;;5.28;63.31;92814.59;2054771;70;20144;-76
2022/11/09 06:37:26;;;;;;;15.43;8.40;;;;;;;5.40;63.60;92822.47;2054769;70;20144;-75
2022/11/09 06:39:53;;;;;;;17.55;8.43;;;;;;;5.29;63.51;92826.50;2054743;70;20160;-75
2022/11/09 06:42:19;;;;;;;14.50;8.25;;;;;;;5.25;63.24;92821.31;2054643;70;20146;-75
2022/11/09 06:44:45;;;;;;;14.43;7.63;;;;;;;5.50;63.60;92824.06;2054677;70;20292;-75
2022/11/09 06:47:11;;;;;;;15.65;8.93;;;;;;;5.59;63.08;92831.03;2051251;70;20226;-73
2022/11/09 06:49:36;;;;;;;16.00;9.88;;;;;;;5.75;62.28;92835.13;2051323;70;20138;-74
2022/11/09 06:52:02;;;;;;;15.13;9.25;;;;;;;5.83;63.11;92846.22;2051162;70;20154;-74
2022/11/09 06:54:28;;;;;;;17.92;8.68;;;;;;;5.93;62.59;92838.66;2054742;70;20167;-74
2022/11/09 06:56:54;;;;;;;20.40;11.48;;;;;;;5.78;62.98;92838.81;2054685;70;20594;-74
2022/11/09 06:59:20;;;;;;;23.77;14.00;;;;;;;5.96;62.23;92834.72;2054498;70;20138;-74
2022/11/09 07:01:47;;;;;;;19.42;11.52;;;;;;;6.07;63.09;92834.19;2051259;70;20160;-74
2022/11/09 07:04:13;;;;;;;17.58;10.50;;;;;;;6.28;62.47;92841.38;2054643;70;20154;-75
2022/11/09 07:06:40;;;;;;;17.75;9.63;;;;;;;6.29;61.65;92838.00;2054710;70;20137;-76
2022/11/09 07:09:06;;;;;;;12.65;8.20;;;;;;;6.36;61.26;92834.34;2051427;70;20513;-75
2022/11/09 07:11:32;;;;;;;12.15;6.47;;;;;;;6.52;59.57;92834.88;2051416;70;20354;-74
2022/11/09 07:13:57;;;;;;;8.18;4.00;;;;;;;6.52;58.40;92845.34;2051256;70;20559;-76
2022/11/09 07:16:23;;;;;;;4.65;3.13;;;;;;;6.40;57.89;92836.72;2054507;69;20495;-76
2022/11/09 07:18:50;;;;;;;7.22;3.70;;;;;;;6.58;57.92;92843.00;2054490;70;20149;-74
2022/11/09 07:21:16;;;;;;;6.35;2.95;;;;;;;6.53;57.00;92838.41;2054819;70;20142;-74
2022/11/09 07:23:42;;;;;;;7.78;4.35;;;;;;;6.87;57.76;92843.13;2054725;70;20146;-75
2022/11/09 07:26:07;;;;;;;20.23;11.52;;;;;;;6.85;58.25;92846.50;2054727;70;20216;-74
2022/11/09 07:28:33;;;;;;;12.57;6.35;;;;;;;7.01;58.22;92835.06;2054550;70;20142;-75
2022/11/09 07:30:59;;;;;;;16.23;10.52;;;;;;;7.06;58.36;92840.41;2051484;70;20130;-74
2022/11/09 07:33:25;;;;;;;12.90;7.78;;;;;;;7.20;57.97;92835.13;2054700;70;20157;-76
2022/11/09 07:35:51;;;;;;;11.15;6.60;;;;;;;7.13;58.74;92831.13;2054521;70;20146;-76
2022/11/09 07:38:18;;;;;;;17.08;6.72;;;;;;;7.29;58.55;92842.06;2054404;70;20134;-76
2022/11/09 07:40:44;;;;;;;8.88;4.28;;;;;;;7.45;57.15;92837.66;2054663;70;20235;-76
2022/11/09 07:43:11;;;;;;;9.13;5.90;;;;;;;7.36;57.71;92841.94;2054495;70;20536;-77
2022/11/09 07:45:39;;;;;;;17.52;8.68;;;;;;;6.92;58.70;92844.94;2051273;70;20164;-77
2022/11/09 07:48:07;;;;;;;20.77;8.27;;;;;;;7.07;58.43;92832.75;2054629;70;20165;-76
2022/11/09 07:50:34;;;;;;;17.15;7.90;;;;;;;7.34;58.47;92832.66;2051324;70;20153;-77
2022/11/09 07:53:01;;;;;;;15.32;6.65;;;;;;;7.32;58.61;92841.63;2054560;70;20240;-77
2022/11/09 07:55:28;;;;;;;11.18;6.63;;;;;;;7.32;58.42;92832.50;2054608;70;20150;-76
2022/11/09 07:57:58;;;;;;;10.68;6.05;;;;;;;7.47;58.28;92831.47;2054675;70;20202;-75
2022/11/09 08:00:25;;;;;;;10.60;5.82;;;;;;;7.41;59.00;92839.44;2054590;70;20158;-75
2022/11/09 08:02:52;;;;;;;11.70;5.60;;;;;;;7.40;58.72;92827.50;2051187;70;20137;-75
2022/11/09 08:05:18;;;;;;;6.90;3.00;;;;;;;7.31;57.30;92834.56;2054648;70;20609;-74
2022/11/09 08:07:44;;;;;;;11.55;5.38;;;;;;;7.48;56.93;92832.97;2054669;70;20170;-77
2022/11/09 08:10:12;;;;;;;9.75;5.70;;;;;;;7.52;57.82;92836.81;2054504;70;20142;-77
2022/11/09 08:12:37;;;;;;;9.40;5.20;;;;;;;7.78;57.86;92834.44;2054537;70;20150;-77
2022/11/09 08:15:04;;;;;;;10.48;5.10;;;;;;;8.15;57.80;92824.56;2054523;69;20133;-77
2022/11/09 08:17:31;;;;;;;10.88;5.30;;;;;;;8.49;57.42;92836.75;2051190;70;20169;-77
2022/11/09 08:19:56;;;;;;;8.48;4.85;;;;;;;8.63;56.57;92820.91;2054511;70;20142;-77
2022/11/09 08:22:22;;;;;;;15.70;8.50;;;;;;;8.78;56.32;92821.91;2054639;70;20165;-76
2022/11/09 08:24:48;;;;;;;13.65;8.10;;;;;;;9.09;55.66;92822.66;2054729;70;20150;-77
2022/11/09 08:27:13;;;;;;;10.55;5.40;;;;;;;9.27;55.53;92828.78;2054619;70;20193;-77
2022/11/09 08:29:39;;;;;;;11.05;6.30;;;;;;;9.43;55.89;92832.66;2054637;70;20153;-77
2022/11/09 08:32:05;;;;;;;13.13;6.32;;;;;;;9.63;56.31;92830.47;2055018;70;20487;-77
2022/11/09 08:34:30;;;;;;;10.57;6.50;;;;;;;9.79;55.34;92822.34;2054523;70;20162;-74
2022/11/09 08:37:01;;;;;;;13.57;6.05;;;;;;;9.86;55.71;92824.25;2054595;70;20162;-74
2022/11/09 08:39:26;;;;;;;10.15;6.20;;;;;;;9.98;55.37;92821.47;2051334;70;20483;-77
2022/11/09 08:41:52;;;;;;;11.32;6.03;;;;;;;10.14;55.24;92819.72;2054671;70;20153;-77
2022/11/09 08:44:18;;;;;;;11.43;6.32;;;;;;;10.00;54.68;92812.44;2054540;70;20138;-76
2022/11/09 08:46:44;;;;;;;9.52;5.68;;;;;;;10.26;54.30;92816.94;2054729;70;20165;-77
2022/11/09 08:49:09;;;;;;;8.98;5.70;;;;;;;10.39;53.03;92816.38;2054516;70;20161;-79
2022/11/09 08:51:35;;;;;;;11.65;5.57;;;;;;;10.48;51.92;92819.72;2054648;70;20173;-76
2022/11/09 08:54:01;;;;;;;8.48;4.53;;;;;;;10.59;49.69;92819.75;2054378;70;20141;-77
2022/11/09 08:56:27;;;;;;;17.42;8.20;;;;;;;10.50;52.94;92819.84;2051214;70;20157;-78
2022/11/09 08:58:52;;;;;;;33.63;16.92;;;;;;;10.79;52.61;92820.25;2054615;70;20227;-78
2022/11/09 09:01:18;;;;;;;14.75;8.20;;;;;;;11.24;52.37;92813.81;2054675;70;20235;-78
2022/11/09 09:03:44;;;;;;;9.70;5.88;;;;;;;11.55;52.58;92819.91;2054867;70;20177;-78
2022/11/09 09:06:09;;;;;;;6.80;4.47;;;;;;;11.55;51.69;92808.63;2055621;70;20145;-75
2022/11/09 09:08:35;;;;;;;11.65;5.10;;;;;;;12.05;51.42;92806.53;2055809;70;20146;-74
2022/11/09 09:11:02;;;;;;;8.98;4.55;;;;;;;12.31;49.03;92810.84;2054565;70;20146;-74
2022/11/09 09:13:28;;;;;;;8.90;4.32;;;;;;;12.21;49.19;92810.28;2054226;70;20138;-75
2022/11/09 09:15:54;;;;;;;16.45;8.52;;;;;;;12.14;48.08;92805.66;2054402;69;20594;-73
2022/11/09 09:18:19;;;;;;;18.50;9.82;;;;;;;12.16;48.25;92812.16;2054394;70;20188;-73
2022/11/09 09:20:46;;;;;;;8.73;5.25;;;;;;;12.52;47.39;92814.81;2054450;69;20147;-73
2022/11/09 09:23:15;;;;;;;8.55;5.05;;;;;;;13.05;48.31;92814.84;2054355;70;20149;-74
2022/11/09 09:25:41;;;;;;;7.30;4.35;;;;;;;13.27;45.48;92821.00;2054293;70;20150;-74
2022/11/09 09:28:08;;;;;;;7.38;5.20;;;;;;;13.46;44.23;92821.31;2054283;70;20164;-73
2022/11/09 09:30:33;;;;;;;9.50;6.18;;;;;;;13.71;44.76;92826.13;2054459;70;20664;-74
2022/11/09 09:32:59;;;;;;;10.35;4.50;;;;;;;13.91;44.74;92820.75;2054253;70;20150;-73
2022/11/09 09:35:27;;;;;;;4.63;3.20;;;;;;;14.14;43.99;92824.72;2051078;70;20241;-73
2022/11/09 09:37:53;;;;;;;5.18;2.97;;;;;;;14.54;44.01;92816.78;2054257;70;20603;-74
2022/11/09 09:40:25;;;;;;;4.82;2.60;;;;;;;15.27;42.89;92823.00;2051003;70;20138;-73
2022/11/09 09:42:53;;;;;;;7.40;2.70;;;;;;;15.19;39.99;92809.19;2051002;70;20146;-74
2022/11/09 09:45:27;;;;;;;8.55;2.58;;;;;;;15.78;39.98;92810.38;2054358;69;20142;-77
2022/11/09 09:48:18;;;;;;;4.22;2.40;;;;;;;16.35;38.36;92804.97;2054299;70;20221;-77
2022/11/09 09:51:05;;;;;;;3.17;1.73;;;;;;;16.43;37.36;92810.97;2050856;70;20252;-76
2022/11/09 09:53:34;;;;;;;3.25;1.50;;;;;;;15.44;37.48;92804.59;2054395;70;20165;-75
2022/11/09 09:56:09;;;;;;;2.10;1.55;;;;;;;15.18;37.92;92816.22;2054364;70;20237;-77
2022/11/09 09:58:41;;;;;;;5.10;2.90;;;;;;;15.88;38.31;92830.66;2054305;70;20173;-76
2022/11/09 10:01:15;;;;;;;4.32;2.00;;;;;;;15.79;37.89;92828.84;2054472;70;20233;-78
2022/11/09 10:03:41;;;;;;;3.38;1.90;;;;;;;15.90;35.87;92822.25;2054455;70;20154;-78
2022/11/09 10:06:36;;;;;;;3.05;2.05;;;;;;;15.19;36.65;92826.19;2054282;70;20221;-78
2022/11/09 10:09:22;;;;;;;3.75;1.83;;;;;;;15.49;35.44;92812.66;2054293;70;20173;-77
2022/11/09 10:12:06;;;;;;;3.45;1.60;;;;;;;15.45;39.14;92812.47;2054452;70;20193;-79
2022/11/09 10:15:06;;;;;;;5.30;4.80;;;;;;;14.72;40.95;92807.03;2051119;70;20241;-76
2022/11/09 10:17:38;;;;;;;2.30;1.73;;;;;;;14.64;40.57;92809.47;2054180;70;20158;-75
2022/11/09 10:20:36;;;;;;;3.42;1.70;;;;;;;14.80;39.26;92809.53;2054288;70;20142;-75
2022/11/09 10:23:10;;;;;;;4.18;1.40;;;;;;;14.92;38.83;92800.84;2040210;70;20155;-74
2022/11/09 10:25:37;;;;;;;3.97;2.60;;;;;;;15.02;38.01;92797.75;2040390;70;20147;-75
2022/11/09 10:28:25;;;;;;;3.03;1.42;;;;;;;14.86;40.67;92795.63;2040165;70;20143;-75
2022/11/09 10:30:51;;;;;;;3.58;1.60;;;;;;;14.67;41.18;92793.31;2040316;70;20535;-75
2022/11/09 10:33:20;;;;;;;1.58;1.30;;;;;;;14.55;39.73;92784.22;2040340;70;20747;-75
2022/11/09 10:35:59;;;;;;;3.95;1.50;;;;;;;14.79;39.03;92782.53;2040445;70;20584;-75
2022/11/09 10:38:30;;;;;;;1.08;0.95;;;;;;;14.68;38.56;92772.84;2040351;70;20286;-75
2022/11/09 10:41:14;;;;;;;2.90;1.58;;;;;;;14.73;38.35;92777.31;2040368;70;20218;-75
2022/11/09 10:43:59;;;;;;;3.00;2.00;;;;;;;15.18;37.21;92767.28;2040263;70;20235;-76
2022/11/09 10:47:01;;;;;;;4.88;1.42;;;;;;;15.18;36.73;92759.53;2040662;70;20274;-76
2022/11/09 10:49:45;;;;;;;3.17;1.60;;;;;;;15.33;37.04;92760.16;2040474;70;20186;-75
2022/11/09 10:52:29;;;;;;;3.17;1.60;;;;;;;15.27;36.25;92743.59;2040391;70;20247;-75
2022/11/09 10:55:21;;;;;;;4.50;1.80;;;;;;;15.14;36.96;92750.09;2040474;70;20154;-75
2022/11/09 10:58:36;;;;;;;2.58;1.45;;;;;;;14.95;38.33;92742.88;2044019;70;20235;-75
2022/11/09 11:01:25;;;;;;;3.60;1.90;;;;;;;14.96;38.96;92744.34;2054308;70;20177;-76
2022/11/09 11:04:22;;;;;;;2.60;1.88;;;;;;;15.22;38.85;92739.13;2054243;70;20161;-77
2022/11/09 11:07:14;;;;;;;2.28;1.80;;;;;;;18.03;37.67;92738.03;2054284;70;20157;-77
2022/11/09 11:10:16;;;;;;;2.95;1.50;;;;;;;21.55;32.17;92735.50;2054194;70;20204;-75
2022/11/09 11:13:00;;;;;;;3.05;1.70;;;;;;;22.61;28.97;92730.31;2054214;70;20161;-75
2022/11/09 11:15:45;;;;;;;4.70;2.65;;;;;;;24.08;27.46;92735.97;2054076;70;20189;-75
2022/11/09 11:18:34;;;;;;;6.88;2.45;;;;;;;25.39;24.98;92737.16;2054537;69;20188;-76
2022/11/09 11:21:22;;;;;;;2.08;1.63;;;;;;;25.38;24.52;92730.63;2054679;69;20208;-74
2022/11/09 11:24:07;;;;;;;2.03;1.83;;;;;;;23.75;25.22;92718.34;2054672;70;20614;-74
2022/11/09 11:27:00;;;;;;;2.03;1.20;;;;;;;24.81;25.48;92722.31;2054771;70;20522;-76
2022/11/09 11:29:59;;;;;;;2.35;1.70;;;;;;;24.92;25.45;92719.50;2054673;70;20256;-76
2022/11/09 11:32:43;;;;;;;2.35;1.30;;;;;;;27.34;23.09;92716.72;2054616;69;20272;-79
2022/11/09 11:35:38;;;;;;;3.42;1.60;;;;;;;28.59;22.89;92714.81;2054578;70;20170;-80
2022/11/09 11:38:26;;;;;;;2.40;1.98;;;;;;;30.02;19.95;92712.84;2054668;69;20248;-78
2022/11/09 11:41:40;;;;;;;3.17;1.50;;;;;;;26.16;21.65;92711.56;2054947;69;20181;-79
2022/11/09 11:44:40;;;;;;;2.75;2.10;;;;;;;27.25;23.21;92712.41;2051796;70;20172;-76
2022/11/09 11:47:40;;;;;;;4.60;2.03;;;;;;;27.80;22.13;92697.81;2054613;69;20160;-77
2022/11/09 11:51:01;;;;;;;4.18;2.55;;;;;;;23.61;26.03;92700.19;2054629;69;20216;-76
2022/11/09 11:54:04;;;;;;;4.82;1.67;;;;;;;20.88;31.97;92685.38;2054623;70;20189;-79